Time;durP1;ratioP1;P1;durP2;ratioP2;P2;SDS_P1;SDS_P2;PMS_P1;PMS_P2;Temp;Humidity;BMP_temperature;BMP_pressure;BME280_temperature;BME280_humidity;BME280_pressure;Samples;Min_cycle;Max_cycle;Signal;HPM_P1;HPM_P2
2022/01/05 00:02:09;;;;;;;1.43;1.20;;;;;;;;;;5138147;27;20200;-67
2022/01/05 00:04:37;;;;;;;1.10;1.00;;;;;;;;;;5134472;27;20204;-68
2022/01/05 00:07:06;;;;;;;2.10;1.40;;;;;;;;;;5135459;27;20215;-67
2022/01/05 00:09:34;;;;;;;2.53;1.50;;;;;;;;;;5130769;27;20193;-67
2022/01/05 00:12:03;;;;;;;1.83;1.30;;;;;;;;;;5137717;27;20199;-68
2022/01/05 00:14:33;;;;;;;1.67;1.10;;;;;;;;;;5131468;27;20276;-68
2022/01/05 00:17:01;;;;;;;0.80;0.80;;;;;;;;;;5139086;27;20218;-68
2022/01/05 00:19:29;;;;;;;1.20;1.10;;;;;;;;;;5137534;27;20223;-68
2022/01/05 00:21:58;;;;;;;1.73;0.73;;;;;;;;;;5134290;27;20196;-68
2022/01/05 00:24:26;;;;;;;1.70;1.60;;;;;;;;;;5135741;27;20362;-68
2022/01/05 00:26:54;;;;;;;1.43;0.87;;;;;;;;;;5135953;27;20222;-68
2022/01/05 00:29:22;;;;;;;1.10;1.10;;;;;;;;;;5134442;27;20203;-68
2022/01/05 00:31:51;;;;;;;0.90;0.70;;;;;;;;;;5132864;27;20197;-68
2022/01/05 00:34:19;;;;;;;1.00;1.00;;;;;;;;;;5132530;27;20200;-68
2022/01/05 00:36:47;;;;;;;0.70;0.70;;;;;;;;;;5138314;27;20223;-68
2022/01/05 00:39:15;;;;;;;1.30;0.93;;;;;;;;;;5137758;27;20224;-69
2022/01/05 00:41:43;;;;;;;2.07;0.90;;;;;;;;;;5134643;27;20201;-68
2022/01/05 00:44:12;;;;;;;3.93;1.30;;;;;;;;;;5135015;27;20200;-69
2022/01/05 00:46:40;;;;;;;2.73;1.00;;;;;;;;;;5138234;27;20212;-69
2022/01/05 00:49:10;;;;;;;0.93;0.80;;;;;;;;;;5137608;27;20228;-69
2022/01/05 00:51:38;;;;;;;1.33;0.60;;;;;;;;;;5136311;27;20691;-68
2022/01/05 00:54:06;;;;;;;1.03;0.83;;;;;;;;;;5138222;27;20651;-69
2022/01/05 00:56:34;;;;;;;0.97;0.97;;;;;;;;;;5137831;27;20227;-69
2022/01/05 00:59:02;;;;;;;2.47;0.40;;;;;;;;;;5132957;27;20212;-68
2022/01/05 01:01:30;;;;;;;1.33;1.23;;;;;;;;;;5132609;27;20210;-68
2022/01/05 01:03:58;;;;;;;0.47;0.47;;;;;;;;;;5137900;27;20245;-70
2022/01/05 01:06:28;;;;;;;1.00;1.00;;;;;;;;;;5129015;27;20220;-66
2022/01/05 01:08:55;;;;;;;0.50;0.50;;;;;;;;;;5138205;27;20207;-68
2022/01/05 01:11:24;;;;;;;1.20;0.77;;;;;;;;;;5134284;27;20212;-68
2022/01/05 01:13:52;;;;;;;2.63;0.60;;;;;;;;;;5132198;27;20197;-69
2022/01/05 01:16:20;;;;;;;0.50;0.50;;;;;;;;;;5133671;27;20230;-68
2022/01/05 01:18:48;;;;;;;0.97;0.60;;;;;;;;;;5136465;27;20224;-68
2022/01/05 01:21:16;;;;;;;0.43;0.30;;;;;;;;;;5137503;27;20196;-69
2022/01/05 01:23:54;;;;;;;1.80;0.83;;;;;;;;;;5136299;27;20204;-69
2022/01/05 01:26:23;;;;;;;1.73;0.90;;;;;;;;;;5137125;27;20251;-68
2022/01/05 01:28:52;;;;;;;0.93;0.60;;;;;;;;;;5123476;27;20558;-68
2022/01/05 01:31:20;;;;;;;2.20;0.80;;;;;;;;;;5132335;27;20205;-69
2022/01/05 01:33:48;;;;;;;1.00;0.70;;;;;;;;;;5135940;27;20200;-69
2022/01/05 01:36:16;;;;;;;1.10;0.83;;;;;;;;;;5134698;27;20220;-68
2022/01/05 01:38:46;;;;;;;1.30;1.17;;;;;;;;;;5135681;27;20220;-69
2022/01/05 01:41:14;;;;;;;0.80;0.70;;;;;;;;;;5136006;27;20287;-69
2022/01/05 01:43:42;;;;;;;1.20;1.10;;;;;;;;;;5135490;27;20283;-68
2022/01/05 01:46:10;;;;;;;2.20;0.73;;;;;;;;;;5136748;27;20218;-69
2022/01/05 01:48:38;;;;;;;1.60;1.13;;;;;;;;;;5134900;27;20232;-69
2022/01/05 01:51:06;;;;;;;1.00;1.00;;;;;;;;;;5128827;27;20196;-69
2022/01/05 01:53:34;;;;;;;0.87;0.80;;;;;;;;;;5136162;27;20203;-69
2022/01/05 01:56:04;;;;;;;2.20;1.33;;;;;;;;;;5132886;27;20304;-69
2022/01/05 01:58:33;;;;;;;1.60;1.47;;;;;;;;;;5135967;27;20212;-69
2022/01/05 02:01:01;;;;;;;2.10;1.27;;;;;;;;;;5130161;28;20203;-68
2022/01/05 02:03:29;;;;;;;0.87;0.87;;;;;;;;;;5131724;27;20627;-68
2022/01/05 02:05:57;;;;;;;1.70;1.23;;;;;;;;;;5134245;28;20216;-69
2022/01/05 02:08:25;;;;;;;0.77;0.77;;;;;;;;;;5132488;28;20204;-69
2022/01/05 02:10:53;;;;;;;1.43;0.70;;;;;;;;;;5137189;28;20200;-69
2022/01/05 02:13:23;;;;;;;1.73;0.60;;;;;;;;;;5130841;28;20204;-69
2022/01/05 02:15:51;;;;;;;0.93;0.73;;;;;;;;;;5127365;28;20215;-69
2022/01/05 02:21:06;;;;;;;1.20;0.80;;;;;;;;;;5131568;28;20554;-69
2022/01/05 02:23:34;;;;;;;0.77;0.67;;;;;;;;;;5132398;28;20206;-69
2022/01/05 02:26:02;;;;;;;1.53;0.93;;;;;;;;;;5128498;28;20219;-69
2022/01/05 02:28:30;;;;;;;1.07;1.03;;;;;;;;;;5135936;28;20700;-69
2022/01/05 02:30:58;;;;;;;3.43;0.70;;;;;;;;;;5136608;28;20658;-69
2022/01/05 02:33:26;;;;;;;2.80;1.23;;;;;;;;;;5130524;28;20286;-69
2022/01/05 02:35:54;;;;;;;0.60;0.60;;;;;;;;;;5132263;28;20231;-69
2022/01/05 02:38:24;;;;;;;0.77;0.70;;;;;;;;;;5136236;28;20218;-69
2022/01/05 02:40:52;;;;;;;0.50;0.50;;;;;;;;;;5128921;28;20215;-69
2022/01/05 02:43:21;;;;;;;0.50;0.50;;;;;;;;;;5136969;28;20208;-69
2022/01/05 02:45:49;;;;;;;0.70;0.70;;;;;;;;;;5127910;28;20205;-69
2022/01/05 02:48:17;;;;;;;0.80;0.80;;;;;;;;;;5136366;28;20239;-69
2022/01/05 02:50:45;;;;;;;1.07;0.97;;;;;;;;;;5134526;28;20201;-69
2022/01/05 02:53:13;;;;;;;1.33;0.70;;;;;;;;;;5133293;28;20207;-69
2022/01/05 02:55:43;;;;;;;0.63;0.63;;;;;;;;;;5129531;27;20200;-69
2022/01/05 02:58:11;;;;;;;0.80;0.80;;;;;;;;;;5120579;28;20204;-69
2022/01/05 03:00:39;;;;;;;1.03;1.03;;;;;;;;;;5133987;28;20234;-69
2022/01/05 03:03:07;;;;;;;0.63;0.63;;;;;;;;;;5132959;28;20200;-69
2022/01/05 03:05:35;;;;;;;1.90;1.33;;;;;;;;;;5125616;28;20196;-69
2022/01/05 03:08:03;;;;;;;1.03;1.00;;;;;;;;;;5135851;28;20204;-69
2022/01/05 03:10:31;;;;;;;0.67;0.67;;;;;;;;;;5136236;28;20200;-69
2022/01/05 03:13:00;;;;;;;1.07;0.70;;;;;;;;;;5135743;28;20283;-69
2022/01/05 03:15:28;;;;;;;1.33;0.60;;;;;;;;;;5138720;27;20192;-69
2022/01/05 03:17:56;;;;;;;0.70;0.70;;;;;;;;;;5139735;27;20693;-69
2022/01/05 03:20:28;;;;;;;0.60;0.60;;;;;;;;;;5130236;27;20236;-69
2022/01/05 03:22:56;;;;;;;0.53;0.50;;;;;;;;;;5139840;27;20196;-70
2022/01/05 03:25:24;;;;;;;1.00;1.00;;;;;;;;;;5137530;27;20196;-69
2022/01/05 03:27:52;;;;;;;0.47;0.47;;;;;;;;;;5133652;27;20713;-69
2022/01/05 03:30:23;;;;;;;2.20;1.10;;;;;;;;;;5138115;27;20196;-69
2022/01/05 03:33:08;;;;;;;0.50;0.50;;;;;;;;;;5139774;27;20200;-69
2022/01/05 03:35:38;;;;;;;0.80;0.80;;;;;;;;;;5130544;27;20283;-69
2022/01/05 03:38:07;;;;;;;1.50;0.93;;;;;;;;;;5139450;27;20670;-69
2022/01/05 03:40:35;;;;;;;2.97;1.53;;;;;;;;;;5138639;27;20224;-69
2022/01/05 03:43:04;;;;;;;1.60;0.80;;;;;;;;;;5139612;27;20195;-69
2022/01/05 03:45:35;;;;;;;1.67;0.90;;;;;;;;;;5138453;27;20200;-69
2022/01/05 03:48:04;;;;;;;1.70;0.80;;;;;;;;;;5132020;27;20232;-69
2022/01/05 03:50:32;;;;;;;1.70;0.70;;;;;;;;;;5130746;27;20222;-69
2022/01/05 03:53:00;;;;;;;0.50;0.50;;;;;;;;;;5130733;27;20196;-69
2022/01/05 03:55:28;;;;;;;2.07;0.80;;;;;;;;;;5141246;27;20641;-69
2022/01/05 03:57:56;;;;;;;1.20;1.07;;;;;;;;;;5138632;27;20204;-69
2022/01/05 04:00:27;;;;;;;3.03;1.10;;;;;;;;;;5130683;27;20671;-69
2022/01/05 04:02:57;;;;;;;1.57;0.90;;;;;;;;;;5137835;27;20204;-70
2022/01/05 04:05:25;;;;;;;0.90;0.90;;;;;;;;;;5134079;27;20236;-70
2022/01/05 04:07:53;;;;;;;0.77;0.77;;;;;;;;;;5138296;27;20220;-70
2022/01/05 04:10:21;;;;;;;2.30;0.70;;;;;;;;;;5135470;27;20197;-69
2022/01/05 04:12:49;;;;;;;1.23;0.80;;;;;;;;;;5134459;27;20196;-69
2022/01/05 04:15:17;;;;;;;2.00;0.80;;;;;;;;;;5138375;27;20287;-69
2022/01/05 04:17:46;;;;;;;0.80;0.77;;;;;;;;;;5138643;27;20303;-69
2022/01/05 04:20:15;;;;;;;1.90;0.93;;;;;;;;;;5136950;27;20285;-69
2022/01/05 04:22:44;;;;;;;0.70;0.70;;;;;;;;;;5138537;27;20552;-69
2022/01/05 04:25:12;;;;;;;2.70;1.10;;;;;;;;;;5129505;27;20223;-70
2022/01/05 04:27:40;;;;;;;1.00;0.70;;;;;;;;;;5138494;27;20597;-69
2022/01/05 04:30:09;;;;;;;0.70;0.70;;;;;;;;;;5131446;27;20193;-69
2022/01/05 04:32:37;;;;;;;1.00;0.87;;;;;;;;;;5131892;27;20200;-69
2022/01/05 04:35:26;;;;;;;1.33;1.10;;;;;;;;;;5137287;27;20583;-69
2022/01/05 04:37:55;;;;;;;0.70;0.70;;;;;;;;;;5138577;27;20197;-69
2022/01/05 04:40:23;;;;;;;1.37;1.27;;;;;;;;;;5129213;27;20225;-69
2022/01/05 04:42:51;;;;;;;0.83;0.70;;;;;;;;;;5138228;27;20684;-69
2022/01/05 04:45:19;;;;;;;0.87;0.87;;;;;;;;;;5137797;27;20661;-69
2022/01/05 04:47:47;;;;;;;0.70;0.70;;;;;;;;;;5134244;27;20871;-70
2022/01/05 04:50:15;;;;;;;0.80;0.80;;;;;;;;;;5134339;27;20204;-69
2022/01/05 04:52:45;;;;;;;1.27;1.07;;;;;;;;;;5137700;27;20208;-70
2022/01/05 04:55:13;;;;;;;0.77;0.73;;;;;;;;;;5140199;27;20196;-69
2022/01/05 04:57:41;;;;;;;2.07;1.00;;;;;;;;;;5137732;27;20696;-69
2022/01/05 05:00:09;;;;;;;1.03;0.97;;;;;;;;;;5125321;27;20582;-69
2022/01/05 05:02:37;;;;;;;1.40;1.30;;;;;;;;;;5136930;27;20200;-69
2022/01/05 05:05:05;;;;;;;0.93;0.80;;;;;;;;;;5132877;27;20197;-69
2022/01/05 05:07:33;;;;;;;1.47;1.33;;;;;;;;;;5125976;27;20246;-70
2022/01/05 05:10:05;;;;;;;2.87;0.93;;;;;;;;;;5125272;27;20200;-70
2022/01/05 05:12:33;;;;;;;2.03;0.97;;;;;;;;;;5136840;27;20226;-70
2022/01/05 05:15:01;;;;;;;1.80;0.70;;;;;;;;;;5137636;27;20283;-69
2022/01/05 05:17:29;;;;;;;2.10;1.07;;;;;;;;;;5137540;27;20222;-69
2022/01/05 05:19:57;;;;;;;1.13;0.90;;;;;;;;;;5125467;27;20196;-70
2022/01/05 05:22:26;;;;;;;1.20;1.07;;;;;;;;;;5137277;27;20204;-69
2022/01/05 05:24:54;;;;;;;1.67;1.50;;;;;;;;;;5136802;27;20207;-69
2022/01/05 05:27:23;;;;;;;1.00;1.00;;;;;;;;;;5132717;27;20255;-70
2022/01/05 05:29:51;;;;;;;0.63;0.63;;;;;;;;;;5134284;27;20566;-69
2022/01/05 05:32:19;;;;;;;3.17;0.87;;;;;;;;;;5137505;27;20659;-70
2022/01/05 05:34:47;;;;;;;1.07;1.07;;;;;;;;;;5128164;27;20689;-71
2022/01/05 05:37:15;;;;;;;1.03;1.03;;;;;;;;;;5124650;27;20273;-71
2022/01/05 05:39:43;;;;;;;0.90;0.90;;;;;;;;;;5134330;27;20210;-71
2022/01/05 05:42:11;;;;;;;2.93;1.03;;;;;;;;;;5135327;27;20216;-71
2022/01/05 05:44:41;;;;;;;1.57;1.20;;;;;;;;;;5136070;27;20210;-71
2022/01/05 05:47:08;;;;;;;1.33;1.10;;;;;;;;;;5134572;27;20224;-71
2022/01/05 05:49:36;;;;;;;0.77;0.77;;;;;;;;;;5135686;27;20283;-71
2022/01/05 05:52:05;;;;;;;1.97;1.30;;;;;;;;;;5132833;27;20188;-71
2022/01/05 05:54:33;;;;;;;0.70;0.70;;;;;;;;;;5144085;27;20202;-71
2022/01/05 05:57:01;;;;;;;1.13;0.77;;;;;;;;;;5145757;27;20220;-71
2022/01/05 05:59:29;;;;;;;0.70;0.70;;;;;;;;;;5146614;27;20564;-71
2022/01/05 06:01:59;;;;;;;0.70;0.70;;;;;;;;;;5138170;27;20271;-71
2022/01/05 06:04:27;;;;;;;1.13;0.77;;;;;;;;;;5143592;27;20196;-71
2022/01/05 06:06:55;;;;;;;1.10;1.10;;;;;;;;;;5141512;27;20211;-71
2022/01/05 06:09:23;;;;;;;1.33;0.50;;;;;;;;;;5140121;27;20200;-71
2022/01/05 06:11:51;;;;;;;0.90;0.90;;;;;;;;;;5142654;27;20196;-71
2022/01/05 06:14:19;;;;;;;1.40;1.10;;;;;;;;;;5142782;27;20196;-69
2022/01/05 06:16:47;;;;;;;0.90;0.90;;;;;;;;;;5141600;27;20225;-69
2022/01/05 06:19:16;;;;;;;1.07;0.97;;;;;;;;;;5140770;27;20232;-69
2022/01/05 06:21:44;;;;;;;0.63;0.60;;;;;;;;;;5136699;28;20220;-68
2022/01/05 06:24:12;;;;;;;1.77;0.73;;;;;;;;;;5135884;28;20192;-69
2022/01/05 06:26:40;;;;;;;0.77;0.77;;;;;;;;;;5137031;28;20304;-69
2022/01/05 06:29:09;;;;;;;0.73;0.40;;;;;;;;;;5136825;28;20283;-69
2022/01/05 06:31:37;;;;;;;2.10;1.07;;;;;;;;;;5120013;28;20195;-69
2022/01/05 06:34:05;;;;;;;0.73;0.73;;;;;;;;;;5130700;28;20197;-69
2022/01/05 06:36:34;;;;;;;1.17;1.07;;;;;;;;;;5127561;28;20221;-69
2022/01/05 06:39:03;;;;;;;1.20;1.10;;;;;;;;;;5136236;28;20726;-66
2022/01/05 06:41:31;;;;;;;1.60;1.50;;;;;;;;;;5127848;28;20220;-65
2022/01/05 06:43:59;;;;;;;1.17;1.03;;;;;;;;;;5129227;28;20192;-70
2022/01/05 06:46:27;;;;;;;2.17;1.80;;;;;;;;;;5135363;28;20242;-69
2022/01/05 06:48:55;;;;;;;1.40;1.00;;;;;;;;;;5137310;27;20223;-71
2022/01/05 06:51:23;;;;;;;1.00;0.90;;;;;;;;;;5139699;27;20196;-72
2022/01/05 06:53:52;;;;;;;0.80;0.80;;;;;;;;;;5128834;27;20280;-72
2022/01/05 06:56:20;;;;;;;1.07;1.07;;;;;;;;;;5139099;27;20661;-73
2022/01/05 06:58:48;;;;;;;1.43;1.23;;;;;;;;;;5134222;27;20272;-71
2022/01/05 07:01:16;;;;;;;1.00;0.83;;;;;;;;;;5141629;27;20219;-72
2022/01/05 07:03:45;;;;;;;2.07;1.80;;;;;;;;;;5142662;27;20279;-72
2022/01/05 07:06:13;;;;;;;0.90;0.90;;;;;;;;;;5142329;27;20272;-72
2022/01/05 07:08:41;;;;;;;2.03;1.63;;;;;;;;;;5138083;27;20200;-72
2022/01/05 07:11:11;;;;;;;2.97;1.33;;;;;;;;;;5127056;27;20209;-72
2022/01/05 07:13:43;;;;;;;1.63;1.30;;;;;;;;;;5136966;27;20283;-72
2022/01/05 07:16:11;;;;;;;1.50;1.20;;;;;;;;;;5139816;27;20247;-72
2022/01/05 07:18:39;;;;;;;1.70;1.07;;;;;;;;;;5135377;27;20284;-72
2022/01/05 07:21:07;;;;;;;2.47;1.00;;;;;;;;;;5142909;27;20604;-72
2022/01/05 07:23:35;;;;;;;1.33;1.00;;;;;;;;;;5139864;27;20208;-72
2022/01/05 07:26:03;;;;;;;1.87;1.00;;;;;;;;;;5139086;27;20216;-72
2022/01/05 07:28:34;;;;;;;2.73;1.53;;;;;;;;;;5139955;27;20259;-71
2022/01/05 07:31:02;;;;;;;1.37;1.20;;;;;;;;;;5138915;27;20236;-72
2022/01/05 07:33:30;;;;;;;1.43;1.00;;;;;;;;;;5131451;27;20196;-71
2022/01/05 07:35:58;;;;;;;2.93;1.83;;;;;;;;;;5133315;27;20713;-72
2022/01/05 07:38:27;;;;;;;1.00;0.90;;;;;;;;;;5134672;27;20208;-72
2022/01/05 07:40:56;;;;;;;2.10;1.80;;;;;;;;;;5133542;27;20197;-73
2022/01/05 07:43:24;;;;;;;1.57;1.03;;;;;;;;;;5144961;27;20694;-71
2022/01/05 07:45:54;;;;;;;3.40;1.63;;;;;;;;;;5143417;27;20254;-73
2022/01/05 07:48:22;;;;;;;1.93;1.43;;;;;;;;;;5148138;27;20231;-73
2022/01/05 07:50:50;;;;;;;1.20;1.10;;;;;;;;;;5148936;27;20206;-74
2022/01/05 07:53:18;;;;;;;4.37;1.17;;;;;;;;;;5140271;27;20200;-72
2022/01/05 07:55:47;;;;;;;3.53;1.13;;;;;;;;;;5141869;27;20210;-73
2022/01/05 07:58:15;;;;;;;2.27;1.20;;;;;;;;;;5141291;27;20203;-71
2022/01/05 08:00:43;;;;;;;2.20;1.00;;;;;;;;;;5138229;27;20207;-72
2022/01/05 08:03:13;;;;;;;2.20;1.40;;;;;;;;;;5143677;27;20228;-72
2022/01/05 08:05:41;;;;;;;0.97;0.97;;;;;;;;;;5146664;27;20290;-72
2022/01/05 08:08:09;;;;;;;4.30;1.67;;;;;;;;;;5145168;27;20196;-72
2022/01/05 08:10:37;;;;;;;2.40;0.87;;;;;;;;;;5143927;27;20568;-73
2022/01/05 08:13:05;;;;;;;1.20;1.10;;;;;;;;;;5137372;27;20276;-72
2022/01/05 08:15:33;;;;;;;1.00;1.00;;;;;;;;;;5138403;27;20196;-72
2022/01/05 08:18:01;;;;;;;2.33;1.43;;;;;;;;;;5136179;27;20225;-72
2022/01/05 08:20:31;;;;;;;1.30;1.20;;;;;;;;;;5129193;27;20224;-72
2022/01/05 08:22:59;;;;;;;1.43;0.97;;;;;;;;;;5129178;27;20216;-72
2022/01/05 08:25:27;;;;;;;0.97;0.53;;;;;;;;;;5130649;27;20256;-72
2022/01/05 08:27:55;;;;;;;2.50;0.90;;;;;;;;;;5138351;27;20196;-72
2022/01/05 08:30:24;;;;;;;1.57;1.10;;;;;;;;;;5137620;27;20227;-73
2022/01/05 08:32:53;;;;;;;2.27;1.00;;;;;;;;;;5138246;27;20196;-73
2022/01/05 08:35:22;;;;;;;2.17;1.37;;;;;;;;;;5137288;27;20204;-73
2022/01/05 08:37:52;;;;;;;8.13;1.80;;;;;;;;;;5138105;27;20263;-73
2022/01/05 08:40:21;;;;;;;1.73;1.50;;;;;;;;;;5137513;27;20287;-73
2022/01/05 08:42:49;;;;;;;1.67;1.07;;;;;;;;;;5138198;27;20216;-73
2022/01/05 08:45:18;;;;;;;3.27;1.63;;;;;;;;;;5136667;27;20206;-72
2022/01/05 08:47:47;;;;;;;2.00;1.30;;;;;;;;;;5132326;27;20698;-72
2022/01/05 08:50:16;;;;;;;2.30;1.60;;;;;;;;;;5134979;27;20662;-72
2022/01/05 08:52:44;;;;;;;3.77;1.23;;;;;;;;;;5133768;27;20195;-72
2022/01/05 08:55:14;;;;;;;4.30;1.43;;;;;;;;;;5137023;27;20279;-72
2022/01/05 08:57:43;;;;;;;2.60;1.00;;;;;;;;;;5132744;27;20245;-72
2022/01/05 09:00:12;;;;;;;1.80;1.70;;;;;;;;;;5136673;27;20611;-72
2022/01/05 09:02:40;;;;;;;2.27;1.10;;;;;;;;;;5143540;27;20216;-72
2022/01/05 09:05:09;;;;;;;4.27;1.57;;;;;;;;;;5144148;27;20196;-72
2022/01/05 09:07:37;;;;;;;4.43;1.40;;;;;;;;;;5145029;27;20222;-73
2022/01/05 09:10:06;;;;;;;3.47;1.30;;;;;;;;;;5141669;27;20205;-72
2022/01/05 09:12:36;;;;;;;2.00;1.77;;;;;;;;;;5137285;27;20201;-72
2022/01/05 09:15:04;;;;;;;3.13;1.27;;;;;;;;;;5145845;27;20275;-73
2022/01/05 09:17:32;;;;;;;6.00;1.60;;;;;;;;;;5142464;27;20784;-72
2022/01/05 09:20:00;;;;;;;4.50;1.73;;;;;;;;;;5144387;27;20223;-73
2022/01/05 09:22:28;;;;;;;3.33;1.83;;;;;;;;;;5136360;27;20303;-72
2022/01/05 09:24:56;;;;;;;3.50;1.60;;;;;;;;;;5145623;27;20272;-72
2022/01/05 09:27:24;;;;;;;2.40;1.60;;;;;;;;;;5144401;27;20274;-72
2022/01/05 09:29:54;;;;;;;1.50;1.03;;;;;;;;;;5144762;27;20200;-72
2022/01/05 09:32:22;;;;;;;2.70;1.90;;;;;;;;;;5143256;27;20279;-72
2022/01/05 09:34:50;;;;;;;5.53;1.40;;;;;;;;;;5143935;27;20206;-73
2022/01/05 09:37:22;;;;;;;2.90;1.40;;;;;;;;;;5144004;27;20303;-72
2022/01/05 09:42:38;;;;;;;3.57;1.57;;;;;;;;;;5134049;27;20231;-73
2022/01/05 09:45:15;;;;;;;4.73;1.53;;;;;;;;;;5131378;27;20196;-72
2022/01/05 09:47:48;;;;;;;7.43;1.40;;;;;;;;;;5128249;27;20271;-72
2022/01/05 09:50:16;;;;;;;5.03;1.03;;;;;;;;;;5136429;27;20204;-72
2022/01/05 09:52:45;;;;;;;2.23;1.30;;;;;;;;;;5136361;27;20214;-72
2022/01/05 09:55:14;;;;;;;6.27;1.50;;;;;;;;;;5144434;27;20627;-72
2022/01/05 09:57:43;;;;;;;3.33;1.70;;;;;;;;;;5141845;27;20228;-72
2022/01/05 10:00:18;;;;;;;4.67;1.70;;;;;;;;;;5144187;27;20448;-72
2022/01/05 10:02:49;;;;;;;6.50;1.60;;;;;;;;;;5140407;27;20216;-72
2022/01/05 10:05:18;;;;;;;4.50;1.37;;;;;;;;;;5144162;27;20518;-78
2022/01/05 10:07:45;;;;;;;4.70;1.80;;;;;;;;;;5130364;27;20220;-70
2022/01/05 10:10:14;;;;;;;7.60;1.63;;;;;;;;;;5137984;28;20210;-70
2022/01/05 10:12:42;;;;;;;6.10;1.43;;;;;;;;;;5139378;27;20879;-70
2022/01/05 10:15:13;;;;;;;6.07;1.77;;;;;;;;;;5144898;27;20449;-71
2022/01/05 10:17:43;;;;;;;7.27;1.97;;;;;;;;;;5135630;28;20516;-71
2022/01/05 10:20:13;;;;;;;3.50;1.70;;;;;;;;;;5134490;28;20450;-70
2022/01/05 10:22:42;;;;;;;5.97;2.10;;;;;;;;;;5128001;27;20227;-70
2022/01/05 10:25:16;;;;;;;9.73;1.63;;;;;;;;;;5132965;27;20231;-70
2022/01/05 10:27:45;;;;;;;5.10;1.43;;;;;;;;;;5139997;27;20311;-70
2022/01/05 10:30:14;;;;;;;2.97;1.43;;;;;;;;;;5127784;27;20722;-71
2022/01/05 10:32:46;;;;;;;7.90;1.77;;;;;;;;;;5141425;27;20195;-70
2022/01/05 10:35:15;;;;;;;2.50;1.47;;;;;;;;;;5142017;27;20495;-69
2022/01/05 10:37:43;;;;;;;7.27;2.30;;;;;;;;;;5148398;27;20306;-73
2022/01/05 10:40:14;;;;;;;3.63;1.53;;;;;;;;;;5136880;27;20518;-70
2022/01/05 10:42:44;;;;;;;3.60;1.60;;;;;;;;;;5136725;27;20890;-70
2022/01/05 10:45:14;;;;;;;7.53;1.73;;;;;;;;;;5140223;27;20452;-69
2022/01/05 10:47:43;;;;;;;5.67;1.67;;;;;;;;;;5140153;27;20485;-70
2022/01/05 10:50:20;;;;;;;6.37;1.80;;;;;;;;;;5131179;27;20453;-70
2022/01/05 10:52:55;;;;;;;4.47;1.73;;;;;;;;;;5139858;27;20460;-70
2022/01/05 10:55:24;;;;;;;3.77;1.80;;;;;;;;;;5136125;27;20456;-70
2022/01/05 10:57:57;;;;;;;5.17;1.50;;;;;;;;;;5139402;27;20516;-69
2022/01/05 11:00:36;;;;;;;5.73;1.90;;;;;;;;;;5142391;27;20210;-71
2022/01/05 11:03:20;;;;;;;3.77;1.87;;;;;;;;;;5130641;27;20532;-71
2022/01/05 11:06:01;;;;;;;3.73;1.73;;;;;;;;;;5140141;27;20202;-70
2022/01/05 11:08:30;;;;;;;6.37;1.60;;;;;;;;;;5133327;27;20191;-71
2022/01/05 11:10:59;;;;;;;6.27;2.30;;;;;;;;;;5138724;27;20688;-72
2022/01/05 11:13:27;;;;;;;2.97;1.77;;;;;;;;;;5139618;27;20445;-72
2022/01/05 11:16:26;;;;;;;2.63;1.30;;;;;;;;;;5139635;27;20698;-71
2022/01/05 11:19:09;;;;;;;7.00;1.90;;;;;;;;;;5142661;27;20475;-70
2022/01/05 11:21:39;;;;;;;5.23;1.67;;;;;;;;;;5147840;27;20195;-72
2022/01/05 11:24:07;;;;;;;4.27;1.97;;;;;;;;;;5145795;27;20785;-73
2022/01/05 11:26:36;;;;;;;5.73;1.40;;;;;;;;;;5141919;27;20600;-71
2022/01/05 11:29:04;;;;;;;4.63;1.30;;;;;;;;;;5148120;27;20461;-74
2022/01/05 11:31:32;;;;;;;3.57;1.70;;;;;;;;;;5144771;27;20550;-71
2022/01/05 11:34:01;;;;;;;7.60;2.20;;;;;;;;;;5139767;27;20702;-72
2022/01/05 11:36:29;;;;;;;6.30;2.10;;;;;;;;;;5137544;27;20234;-73
2022/01/05 11:39:03;;;;;;;6.43;1.90;;;;;;;;;;5136028;27;20207;-72
2022/01/05 11:41:32;;;;;;;6.33;1.77;;;;;;;;;;5133837;27;20631;-71
2022/01/05 11:44:01;;;;;;;4.57;1.80;;;;;;;;;;5143023;27;20216;-64
2022/01/05 11:46:30;;;;;;;8.73;2.00;;;;;;;;;;5145170;27;20794;-64
2022/01/05 11:48:59;;;;;;;5.83;1.87;;;;;;;;;;5146028;27;20770;-72
2022/01/05 11:51:31;;;;;;;7.77;1.63;;;;;;;;;;5145209;27;20192;-73
2022/01/05 11:54:16;;;;;;;4.30;1.67;;;;;;;;;;5146464;27;20192;-71
2022/01/05 11:56:48;;;;;;;2.77;1.30;;;;;;;;;;5134720;27;20215;-73
2022/01/05 11:59:21;;;;;;;7.63;1.73;;;;;;;;;;5129924;27;20766;-73
2022/01/05 12:01:59;;;;;;;3.13;1.37;;;;;;;;;;5145049;27;20279;-73
2022/01/05 12:04:28;;;;;;;5.70;2.00;;;;;;;;;;5137836;27;20223;-74
2022/01/05 12:07:08;;;;;;;4.10;1.63;;;;;;;;;;5138763;27;20698;-74
2022/01/05 12:09:39;;;;;;;5.30;1.70;;;;;;;;;;5129811;27;20210;-73
2022/01/05 12:12:31;;;;;;;2.57;1.50;;;;;;;;;;5139515;27;20607;-75
2022/01/05 12:15:00;;;;;;;5.80;2.13;;;;;;;;;;5138826;27;20192;-74
2022/01/05 12:17:29;;;;;;;3.87;1.97;;;;;;;;;;5148820;27;20219;-74
2022/01/05 12:20:13;;;;;;;6.73;1.80;;;;;;;;;;5130096;27;20196;-74
2022/01/05 12:22:42;;;;;;;3.00;2.07;;;;;;;;;;5127219;27;20578;-74
2022/01/05 12:25:12;;;;;;;1.60;1.40;;;;;;;;;;5131587;27;20766;-74
2022/01/05 12:27:50;;;;;;;6.60;1.73;;;;;;;;;;5136872;27;20226;-75
2022/01/05 12:30:40;;;;;;;4.20;1.43;;;;;;;;;;5127276;27;20207;-74
2022/01/05 12:33:13;;;;;;;3.20;1.80;;;;;;;;;;5128931;27;20207;-75
2022/01/05 12:35:53;;;;;;;3.13;1.60;;;;;;;;;;5129067;27;20200;-74
2022/01/05 12:38:31;;;;;;;6.17;1.97;;;;;;;;;;5128455;27;20196;-74
2022/01/05 12:40:59;;;;;;;2.77;1.27;;;;;;;;;;5138068;27;20196;-74
2022/01/05 12:43:36;;;;;;;6.73;1.67;;;;;;;;;;5147673;27;20197;-75
2022/01/05 12:46:08;;;;;;;4.03;1.70;;;;;;;;;;5147175;27;20302;-75
2022/01/05 12:48:54;;;;;;;3.67;1.50;;;;;;;;;;5145489;27;20223;-75
2022/01/05 12:51:31;;;;;;;3.87;1.50;;;;;;;;;;5146162;27;20211;-74
2022/01/05 12:54:01;;;;;;;5.27;2.13;;;;;;;;;;5143795;27;20650;-74
2022/01/05 12:56:32;;;;;;;4.70;1.53;;;;;;;;;;5142088;27;20247;-74
2022/01/05 12:59:02;;;;;;;6.03;1.67;;;;;;;;;;5143397;27;20231;-74
2022/01/05 13:01:30;;;;;;;4.67;1.77;;;;;;;;;;5135367;27;20203;-74
2022/01/05 13:03:59;;;;;;;5.40;1.70;;;;;;;;;;5141907;27;20230;-74
2022/01/05 13:06:29;;;;;;;5.27;1.50;;;;;;;;;;5141418;27;20216;-74
2022/01/05 13:08:58;;;;;;;4.30;1.73;;;;;;;;;;5142924;27;20291;-74
2022/01/05 13:11:33;;;;;;;4.03;2.00;;;;;;;;;;5141844;27;20457;-74
2022/01/05 13:14:17;;;;;;;3.70;1.10;;;;;;;;;;5137338;27;20198;-74
2022/01/05 13:16:46;;;;;;;6.00;1.60;;;;;;;;;;5146946;27;20690;-74
2022/01/05 13:19:24;;;;;;;2.33;1.37;;;;;;;;;;5140774;27;20210;-74
2022/01/05 13:21:53;;;;;;;2.47;1.50;;;;;;;;;;5146682;27;20445;-74
2022/01/05 13:24:24;;;;;;;6.30;1.30;;;;;;;;;;5146002;27;20940;-74
2022/01/05 13:27:09;;;;;;;4.63;1.53;;;;;;;;;;5147575;27;20471;-74
2022/01/05 13:29:38;;;;;;;4.13;2.13;;;;;;;;;;5139198;27;20453;-74
2022/01/05 13:32:07;;;;;;;8.27;1.83;;;;;;;;;;5147106;27;20459;-74
2022/01/05 13:34:36;;;;;;;6.70;2.67;;;;;;;;;;5145700;27;20453;-73
2022/01/05 13:37:05;;;;;;;2.87;1.63;;;;;;;;;;5143411;27;20519;-74
2022/01/05 13:39:34;;;;;;;5.37;1.90;;;;;;;;;;5140131;27;20453;-72
2022/01/05 13:42:02;;;;;;;4.33;1.40;;;;;;;;;;5133067;27;20453;-73
2022/01/05 13:44:30;;;;;;;4.03;1.53;;;;;;;;;;5137134;27;20457;-74
2022/01/05 13:47:03;;;;;;;7.67;2.87;;;;;;;;;;5136363;27;20526;-73
2022/01/05 13:49:31;;;;;;;4.70;2.13;;;;;;;;;;5136175;27;20460;-72
2022/01/05 13:52:03;;;;;;;5.47;1.73;;;;;;;;;;5127918;27;20468;-74
2022/01/05 13:54:32;;;;;;;4.40;1.17;;;;;;;;;;5131706;27;20450;-73
2022/01/05 13:57:01;;;;;;;6.60;1.73;;;;;;;;;;5140239;27;20469;-75
2022/01/05 13:59:39;;;;;;;3.73;1.50;;;;;;;;;;5144244;27;20982;-75
2022/01/05 14:02:09;;;;;;;5.23;2.40;;;;;;;;;;5141602;27;20449;-76
2022/01/05 14:04:48;;;;;;;7.10;1.93;;;;;;;;;;5135754;27;20451;-75
2022/01/05 14:07:17;;;;;;;3.60;2.13;;;;;;;;;;5125997;28;20469;-76
2022/01/05 14:09:46;;;;;;;7.73;1.67;;;;;;;;;;5129250;27;20449;-73
2022/01/05 14:12:30;;;;;;;6.10;2.00;;;;;;;;;;5141489;27;20453;-74
2022/01/05 14:14:58;;;;;;;2.60;1.60;;;;;;;;;;5143597;27;20453;-73
2022/01/05 14:17:28;;;;;;;4.00;2.10;;;;;;;;;;5142276;27;20468;-72
2022/01/05 14:20:12;;;;;;;4.50;1.70;;;;;;;;;;5139477;27;20454;-74
2022/01/05 14:22:41;;;;;;;2.73;1.80;;;;;;;;;;5129780;27;20462;-73
2022/01/05 14:25:10;;;;;;;2.90;1.57;;;;;;;;;;5131270;28;20473;-73
2022/01/05 14:27:38;;;;;;;3.97;1.80;;;;;;;;;;5123050;28;20903;-73
2022/01/05 14:30:11;;;;;;;5.63;1.13;;;;;;;;;;5129531;28;20816;-73
2022/01/05 14:32:40;;;;;;;5.10;1.93;;;;;;;;;;5131369;28;20818;-73
2022/01/05 14:35:15;;;;;;;7.97;1.70;;;;;;;;;;5134511;28;20453;-74
2022/01/05 14:37:56;;;;;;;7.77;1.97;;;;;;;;;;5123767;27;20473;-73
2022/01/05 14:40:26;;;;;;;4.57;2.33;;;;;;;;;;5120095;27;20841;-74
2022/01/05 14:42:55;;;;;;;3.97;2.50;;;;;;;;;;5120686;27;20467;-74
2022/01/05 14:45:23;;;;;;;8.53;2.03;;;;;;;;;;5129025;28;20564;-74
2022/01/05 14:47:52;;;;;;;5.70;2.20;;;;;;;;;;5125675;28;20478;-75
2022/01/05 14:50:20;;;;;;;6.30;1.50;;;;;;;;;;5130529;27;20453;-74
2022/01/05 14:52:48;;;;;;;5.57;2.37;;;;;;;;;;5144095;27;20456;-74
2022/01/05 14:55:16;;;;;;;1.97;1.77;;;;;;;;;;5137055;27;20466;-74
2022/01/05 14:57:44;;;;;;;6.37;1.70;;;;;;;;;;5137114;27;20469;-73
2022/01/05 15:00:15;;;;;;;6.00;2.77;;;;;;;;;;5136102;27;20456;-74
2022/01/05 15:02:43;;;;;;;4.10;1.20;;;;;;;;;;5136589;27;20528;-74
2022/01/05 15:05:12;;;;;;;5.30;2.00;;;;;;;;;;5132804;28;20450;-73